sensor_id;sensor_type;location;lat;lon;timestamp;P1;durP1;ratioP1;P2;durP2;ratioP2
12385;SDS011;6257;57.634;18.310;2023-06-22T00:01:32;38.30;;;34.27;;
12385;SDS011;6257;57.634;18.310;2023-06-22T00:04:00;44.87;;;38.00;;
12385;SDS011;6257;57.634;18.310;2023-06-22T00:06:27;45.93;;;39.87;;
12385;SDS011;6257;57.634;18.310;2023-06-22T00:08:54;46.57;;;39.30;;
12385;SDS011;6257;57.634;18.310;2023-06-22T00:11:22;45.53;;;39.57;;
12385;SDS011;6257;57.634;18.310;2023-06-22T00:13:49;48.13;;;40.63;;
12385;SDS011;6257;57.634;18.310;2023-06-22T00:16:16;49.33;;;41.80;;
12385;SDS011;6257;57.634;18.310;2023-06-22T00:18:43;53.93;;;42.07;;
12385;SDS011;6257;57.634;18.310;2023-06-22T00:21:12;51.83;;;43.23;;
12385;SDS011;6257;57.634;18.310;2023-06-22T00:23:39;50.63;;;43.23;;
12385;SDS011;6257;57.634;18.310;2023-06-22T00:26:06;57.20;;;46.33;;
12385;SDS011;6257;57.634;18.310;2023-06-22T00:28:35;61.50;;;47.97;;
12385;SDS011;6257;57.634;18.310;2023-06-22T00:31:01;64.93;;;49.37;;
12385;SDS011;6257;57.634;18.310;2023-06-22T00:33:28;65.83;;;51.83;;
12385;SDS011;6257;57.634;18.310;2023-06-22T00:35:56;76.97;;;55.90;;
12385;SDS011;6257;57.634;18.310;2023-06-22T00:38:23;85.03;;;60.90;;
12385;SDS011;6257;57.634;18.310;2023-06-22T00:40:50;95.27;;;66.07;;
12385;SDS011;6257;57.634;18.310;2023-06-22T00:43:17;96.60;;;64.77;;
12385;SDS011;6257;57.634;18.310;2023-06-22T00:45:46;100.77;;;68.33;;
12385;SDS011;6257;57.634;18.310;2023-06-22T00:48:13;102.93;;;65.50;;
12385;SDS011;6257;57.634;18.310;2023-06-22T00:50:40;104.93;;;66.93;;
12385;SDS011;6257;57.634;18.310;2023-06-22T00:53:08;100.87;;;67.07;;
12385;SDS011;6257;57.634;18.310;2023-06-22T00:55:37;105.17;;;66.17;;
12385;SDS011;6257;57.634;18.310;2023-06-22T00:58:08;100.37;;;68.57;;
12385;SDS011;6257;57.634;18.310;2023-06-22T01:00:36;97.27;;;64.10;;
12385;SDS011;6257;57.634;18.310;2023-06-22T01:03:05;109.27;;;67.13;;
12385;SDS011;6257;57.634;18.310;2023-06-22T01:05:34;104.37;;;67.27;;
12385;SDS011;6257;57.634;18.310;2023-06-22T01:08:05;104.03;;;62.50;;
12385;SDS011;6257;57.634;18.310;2023-06-22T01:10:38;96.97;;;61.00;;
12385;SDS011;6257;57.634;18.310;2023-06-22T01:13:10;93.50;;;63.63;;
12385;SDS011;6257;57.634;18.310;2023-06-22T01:15:43;97.53;;;61.77;;
12385;SDS011;6257;57.634;18.310;2023-06-22T01:18:16;90.10;;;60.63;;
12385;SDS011;6257;57.634;18.310;2023-06-22T01:20:45;95.30;;;60.97;;
12385;SDS011;6257;57.634;18.310;2023-06-22T01:23:17;93.03;;;61.37;;
12385;SDS011;6257;57.634;18.310;2023-06-22T01:25:54;89.53;;;61.70;;
12385;SDS011;6257;57.634;18.310;2023-06-22T01:28:42;92.20;;;59.30;;
12385;SDS011;6257;57.634;18.310;2023-06-22T01:31:11;96.27;;;60.53;;
12385;SDS011;6257;57.634;18.310;2023-06-22T01:33:41;82.37;;;56.80;;
12385;SDS011;6257;57.634;18.310;2023-06-22T01:36:10;81.63;;;58.77;;
12385;SDS011;6257;57.634;18.310;2023-06-22T01:38:37;77.57;;;57.87;;
12385;SDS011;6257;57.634;18.310;2023-06-22T01:41:05;79.10;;;57.27;;
12385;SDS011;6257;57.634;18.310;2023-06-22T01:43:32;80.07;;;57.67;;
12385;SDS011;6257;57.634;18.310;2023-06-22T01:46:02;78.40;;;55.73;;
12385;SDS011;6257;57.634;18.310;2023-06-22T01:48:30;76.50;;;55.60;;
12385;SDS011;6257;57.634;18.310;2023-06-22T01:50:57;85.03;;;57.70;;
12385;SDS011;6257;57.634;18.310;2023-06-22T01:53:26;81.27;;;57.43;;
12385;SDS011;6257;57.634;18.310;2023-06-22T01:55:53;73.77;;;55.03;;
12385;SDS011;6257;57.634;18.310;2023-06-22T01:58:20;81.93;;;56.10;;
12385;SDS011;6257;57.634;18.310;2023-06-22T02:00:50;76.00;;;55.77;;
12385;SDS011;6257;57.634;18.310;2023-06-22T02:03:25;73.33;;;54.80;;
12385;SDS011;6257;57.634;18.310;2023-06-22T02:05:56;69.93;;;53.80;;
12385;SDS011;6257;57.634;18.310;2023-06-22T02:08:29;72.87;;;53.33;;
12385;SDS011;6257;57.634;18.310;2023-06-22T02:11:01;69.37;;;52.47;;
12385;SDS011;6257;57.634;18.310;2023-06-22T02:13:29;65.73;;;51.17;;
12385;SDS011;6257;57.634;18.310;2023-06-22T02:15:58;64.97;;;50.00;;
12385;SDS011;6257;57.634;18.310;2023-06-22T02:18:27;63.23;;;49.37;;
12385;SDS011;6257;57.634;18.310;2023-06-22T02:20:54;60.60;;;48.07;;
12385;SDS011;6257;57.634;18.310;2023-06-22T02:23:21;57.73;;;48.30;;
12385;SDS011;6257;57.634;18.310;2023-06-22T02:25:48;60.30;;;48.70;;
12385;SDS011;6257;57.634;18.310;2023-06-22T02:28:15;61.80;;;45.97;;
12385;SDS011;6257;57.634;18.310;2023-06-22T02:30:42;57.13;;;46.27;;
12385;SDS011;6257;57.634;18.310;2023-06-22T02:33:09;56.07;;;45.93;;
12385;SDS011;6257;57.634;18.310;2023-06-22T02:35:38;51.50;;;43.83;;
12385;SDS011;6257;57.634;18.310;2023-06-22T02:38:10;50.23;;;43.13;;
12385;SDS011;6257;57.634;18.310;2023-06-22T02:40:37;45.07;;;39.70;;
12385;SDS011;6257;57.634;18.310;2023-06-22T02:43:04;42.87;;;37.97;;
12385;SDS011;6257;57.634;18.310;2023-06-22T02:45:31;41.83;;;37.33;;
12385;SDS011;6257;57.634;18.310;2023-06-22T02:47:58;40.67;;;36.23;;
12385;SDS011;6257;57.634;18.310;2023-06-22T02:50:26;38.93;;;34.73;;
12385;SDS011;6257;57.634;18.310;2023-06-22T02:52:54;40.43;;;36.20;;
12385;SDS011;6257;57.634;18.310;2023-06-22T02:55:21;37.93;;;34.07;;
12385;SDS011;6257;57.634;18.310;2023-06-22T02:57:48;37.90;;;34.00;;
12385;SDS011;6257;57.634;18.310;2023-06-22T03:00:17;36.73;;;32.83;;
12385;SDS011;6257;57.634;18.310;2023-06-22T03:02:47;38.17;;;34.17;;
12385;SDS011;6257;57.634;18.310;2023-06-22T03:05:14;36.70;;;33.03;;
12385;SDS011;6257;57.634;18.310;2023-06-22T03:07:43;35.27;;;31.70;;
12385;SDS011;6257;57.634;18.310;2023-06-22T03:10:13;33.70;;;30.30;;
12385;SDS011;6257;57.634;18.310;2023-06-22T03:12:41;33.13;;;29.63;;
12385;SDS011;6257;57.634;18.310;2023-06-22T03:15:09;33.07;;;29.73;;
12385;SDS011;6257;57.634;18.310;2023-06-22T03:17:38;34.30;;;30.63;;
12385;SDS011;6257;57.634;18.310;2023-06-22T03:20:06;33.57;;;30.07;;
12385;SDS011;6257;57.634;18.310;2023-06-22T03:22:35;32.03;;;28.83;;
12385;SDS011;6257;57.634;18.310;2023-06-22T03:25:03;31.90;;;28.50;;
12385;SDS011;6257;57.634;18.310;2023-06-22T03:27:36;32.53;;;29.33;;
12385;SDS011;6257;57.634;18.310;2023-06-22T03:30:04;31.87;;;28.43;;
12385;SDS011;6257;57.634;18.310;2023-06-22T03:32:32;31.77;;;28.57;;
12385;SDS011;6257;57.634;18.310;2023-06-22T03:34:59;29.03;;;26.03;;
12385;SDS011;6257;57.634;18.310;2023-06-22T03:37:26;29.70;;;26.60;;
12385;SDS011;6257;57.634;18.310;2023-06-22T03:39:53;29.27;;;25.70;;
12385;SDS011;6257;57.634;18.310;2023-06-22T03:42:20;29.60;;;26.70;;
12385;SDS011;6257;57.634;18.310;2023-06-22T03:44:49;28.20;;;25.33;;
12385;SDS011;6257;57.634;18.310;2023-06-22T03:47:16;26.43;;;23.83;;
12385;SDS011;6257;57.634;18.310;2023-06-22T03:49:44;24.83;;;22.23;;
12385;SDS011;6257;57.634;18.310;2023-06-22T03:52:11;25.27;;;22.67;;
12385;SDS011;6257;57.634;18.310;2023-06-22T03:54:38;23.27;;;20.87;;
12385;SDS011;6257;57.634;18.310;2023-06-22T03:57:05;22.47;;;20.17;;
12385;SDS011;6257;57.634;18.310;2023-06-22T03:59:32;21.50;;;19.30;;
12385;SDS011;6257;57.634;18.310;2023-06-22T04:02:00;21.20;;;19.07;;
12385;SDS011;6257;57.634;18.310;2023-06-22T04:04:27;19.67;;;17.77;;
12385;SDS011;6257;57.634;18.310;2023-06-22T04:06:54;19.20;;;16.97;;
12385;SDS011;6257;57.634;18.310;2023-06-22T04:09:21;18.97;;;16.80;;
12385;SDS011;6257;57.634;18.310;2023-06-22T04:11:50;17.83;;;16.03;;
12385;SDS011;6257;57.634;18.310;2023-06-22T04:14:17;18.37;;;15.50;;
12385;SDS011;6257;57.634;18.310;2023-06-22T04:16:44;17.37;;;15.53;;
12385;SDS011;6257;57.634;18.310;2023-06-22T04:19:12;16.17;;;14.20;;
12385;SDS011;6257;57.634;18.310;2023-06-22T04:21:41;16.07;;;14.50;;
12385;SDS011;6257;57.634;18.310;2023-06-22T04:24:09;16.20;;;14.50;;
12385;SDS011;6257;57.634;18.310;2023-06-22T04:26:36;16.80;;;14.73;;
12385;SDS011;6257;57.634;18.310;2023-06-22T04:29:03;17.20;;;15.30;;
12385;SDS011;6257;57.634;18.310;2023-06-22T04:31:31;15.07;;;13.23;;
12385;SDS011;6257;57.634;18.310;2023-06-22T04:34:02;15.40;;;13.73;;
12385;SDS011;6257;57.634;18.310;2023-06-22T04:36:33;15.70;;;13.57;;
12385;SDS011;6257;57.634;18.310;2023-06-22T04:39:06;16.20;;;12.83;;
12385;SDS011;6257;57.634;18.310;2023-06-22T04:41:34;13.47;;;12.07;;
12385;SDS011;6257;57.634;18.310;2023-06-22T04:44:10;13.97;;;11.20;;
12385;SDS011;6257;57.634;18.310;2023-06-22T04:46:38;13.17;;;11.20;;
12385;SDS011;6257;57.634;18.310;2023-06-22T04:49:06;13.70;;;11.27;;
12385;SDS011;6257;57.634;18.310;2023-06-22T04:51:38;13.77;;;10.83;;
12385;SDS011;6257;57.634;18.310;2023-06-22T04:54:09;14.27;;;10.73;;
12385;SDS011;6257;57.634;18.310;2023-06-22T04:56:36;13.33;;;9.97;;
12385;SDS011;6257;57.634;18.310;2023-06-22T04:59:06;15.17;;;9.67;;
12385;SDS011;6257;57.634;18.310;2023-06-22T05:01:33;11.10;;;8.73;;
12385;SDS011;6257;57.634;18.310;2023-06-22T05:04:01;9.60;;;8.60;;
12385;SDS011;6257;57.634;18.310;2023-06-22T05:06:29;11.50;;;9.30;;
12385;SDS011;6257;57.634;18.310;2023-06-22T05:08:57;9.93;;;8.77;;
12385;SDS011;6257;57.634;18.310;2023-06-22T05:11:24;10.07;;;8.53;;
12385;SDS011;6257;57.634;18.310;2023-06-22T05:13:51;11.00;;;8.67;;
12385;SDS011;6257;57.634;18.310;2023-06-22T05:16:19;9.80;;;8.70;;
12385;SDS011;6257;57.634;18.310;2023-06-22T05:18:49;9.87;;;8.13;;
12385;SDS011;6257;57.634;18.310;2023-06-22T05:21:17;8.53;;;7.70;;
12385;SDS011;6257;57.634;18.310;2023-06-22T05:23:45;8.57;;;7.37;;
12385;SDS011;6257;57.634;18.310;2023-06-22T05:26:13;8.30;;;7.40;;
12385;SDS011;6257;57.634;18.310;2023-06-22T05:28:40;8.47;;;7.57;;
12385;SDS011;6257;57.634;18.310;2023-06-22T05:31:11;10.27;;;6.97;;
12385;SDS011;6257;57.634;18.310;2023-06-22T05:33:38;7.10;;;5.30;;
12385;SDS011;6257;57.634;18.310;2023-06-22T05:36:06;5.73;;;4.30;;
12385;SDS011;6257;57.634;18.310;2023-06-22T05:38:34;5.60;;;3.70;;
12385;SDS011;6257;57.634;18.310;2023-06-22T05:41:01;6.97;;;3.60;;
12385;SDS011;6257;57.634;18.310;2023-06-22T05:43:30;4.77;;;3.00;;
12385;SDS011;6257;57.634;18.310;2023-06-22T05:45:57;4.10;;;3.10;;
12385;SDS011;6257;57.634;18.310;2023-06-22T05:48:25;5.90;;;3.33;;
12385;SDS011;6257;57.634;18.310;2023-06-22T05:50:53;6.10;;;3.23;;
12385;SDS011;6257;57.634;18.310;2023-06-22T05:53:20;4.73;;;2.87;;
12385;SDS011;6257;57.634;18.310;2023-06-22T05:55:47;7.13;;;3.27;;
12385;SDS011;6257;57.634;18.310;2023-06-22T05:58:14;6.03;;;3.20;;
12385;SDS011;6257;57.634;18.310;2023-06-22T06:00:43;7.47;;;3.33;;
12385;SDS011;6257;57.634;18.310;2023-06-22T06:03:10;6.27;;;3.20;;
12385;SDS011;6257;57.634;18.310;2023-06-22T06:05:37;7.77;;;3.33;;
12385;SDS011;6257;57.634;18.310;2023-06-22T06:08:05;7.70;;;2.90;;
12385;SDS011;6257;57.634;18.310;2023-06-22T06:10:33;5.00;;;3.10;;
12385;SDS011;6257;57.634;18.310;2023-06-22T06:13:01;7.10;;;3.57;;
12385;SDS011;6257;57.634;18.310;2023-06-22T06:15:29;6.50;;;3.37;;
12385;SDS011;6257;57.634;18.310;2023-06-22T06:17:57;5.67;;;3.47;;
12385;SDS011;6257;57.634;18.310;2023-06-22T06:20:25;4.43;;;3.13;;
12385;SDS011;6257;57.634;18.310;2023-06-22T06:22:54;7.27;;;3.20;;
12385;SDS011;6257;57.634;18.310;2023-06-22T06:25:21;5.97;;;3.33;;
12385;SDS011;6257;57.634;18.310;2023-06-22T06:27:48;6.57;;;3.10;;
12385;SDS011;6257;57.634;18.310;2023-06-22T06:30:19;4.83;;;3.37;;
12385;SDS011;6257;57.634;18.310;2023-06-22T06:32:47;5.37;;;3.47;;
12385;SDS011;6257;57.634;18.310;2023-06-22T06:35:15;5.60;;;3.40;;
12385;SDS011;6257;57.634;18.310;2023-06-22T06:37:44;8.53;;;3.70;;
12385;SDS011;6257;57.634;18.310;2023-06-22T06:40:13;6.20;;;3.40;;
12385;SDS011;6257;57.634;18.310;2023-06-22T06:42:41;4.57;;;3.17;;
12385;SDS011;6257;57.634;18.310;2023-06-22T06:45:10;7.50;;;3.63;;
12385;SDS011;6257;57.634;18.310;2023-06-22T06:47:38;5.70;;;3.40;;
12385;SDS011;6257;57.634;18.310;2023-06-22T06:50:06;5.67;;;3.80;;
12385;SDS011;6257;57.634;18.310;2023-06-22T06:52:35;6.93;;;3.50;;
12385;SDS011;6257;57.634;18.310;2023-06-22T06:55:02;5.37;;;3.40;;
12385;SDS011;6257;57.634;18.310;2023-06-22T06:57:33;8.00;;;3.70;;
12385;SDS011;6257;57.634;18.310;2023-06-22T07:00:00;8.17;;;3.83;;
12385;SDS011;6257;57.634;18.310;2023-06-22T07:02:32;6.30;;;3.57;;
12385;SDS011;6257;57.634;18.310;2023-06-22T07:05:01;5.13;;;3.60;;
12385;SDS011;6257;57.634;18.310;2023-06-22T07:07:29;8.43;;;4.17;;
12385;SDS011;6257;57.634;18.310;2023-06-22T07:09:57;4.33;;;3.43;;
12385;SDS011;6257;57.634;18.310;2023-06-22T07:12:25;8.33;;;3.80;;
12385;SDS011;6257;57.634;18.310;2023-06-22T07:14:52;5.93;;;3.40;;
12385;SDS011;6257;57.634;18.310;2023-06-22T07:17:19;6.40;;;2.97;;
12385;SDS011;6257;57.634;18.310;2023-06-22T07:19:46;6.73;;;3.13;;
12385;SDS011;6257;57.634;18.310;2023-06-22T07:22:19;6.10;;;3.10;;
12385;SDS011;6257;57.634;18.310;2023-06-22T07:24:46;7.27;;;3.40;;
12385;SDS011;6257;57.634;18.310;2023-06-22T07:27:15;5.60;;;3.03;;
12385;SDS011;6257;57.634;18.310;2023-06-22T07:29:44;4.90;;;3.23;;
12385;SDS011;6257;57.634;18.310;2023-06-22T07:32:11;7.00;;;3.57;;
12385;SDS011;6257;57.634;18.310;2023-06-22T07:34:38;5.83;;;3.50;;
12385;SDS011;6257;57.634;18.310;2023-06-22T07:37:05;4.77;;;3.50;;
12385;SDS011;6257;57.634;18.310;2023-06-22T07:39:32;4.37;;;3.20;;
12385;SDS011;6257;57.634;18.310;2023-06-22T07:41:59;4.90;;;3.30;;
12385;SDS011;6257;57.634;18.310;2023-06-22T07:44:28;4.77;;;3.53;;
12385;SDS011;6257;57.634;18.310;2023-06-22T07:46:55;5.70;;;3.40;;
12385;SDS011;6257;57.634;18.310;2023-06-22T07:49:22;5.93;;;3.60;;
12385;SDS011;6257;57.634;18.310;2023-06-22T07:51:49;5.73;;;3.33;;
12385;SDS011;6257;57.634;18.310;2023-06-22T07:54:16;6.33;;;3.10;;
12385;SDS011;6257;57.634;18.310;2023-06-22T07:56:43;4.90;;;2.93;;
12385;SDS011;6257;57.634;18.310;2023-06-22T07:59:10;5.77;;;3.10;;
12385;SDS011;6257;57.634;18.310;2023-06-22T08:01:38;5.33;;;2.83;;
12385;SDS011;6257;57.634;18.310;2023-06-22T08:04:05;3.93;;;3.17;;
12385;SDS011;6257;57.634;18.310;2023-06-22T08:06:32;6.33;;;3.20;;
12385;SDS011;6257;57.634;18.310;2023-06-22T08:08:59;4.87;;;2.90;;
12385;SDS011;6257;57.634;18.310;2023-06-22T08:11:26;5.80;;;2.80;;
12385;SDS011;6257;57.634;18.310;2023-06-22T08:13:53;5.40;;;3.10;;
12385;SDS011;6257;57.634;18.310;2023-06-22T08:16:21;4.87;;;3.00;;
12385;SDS011;6257;57.634;18.310;2023-06-22T08:18:49;6.30;;;3.30;;
12385;SDS011;6257;57.634;18.310;2023-06-22T08:21:16;7.93;;;3.40;;
12385;SDS011;6257;57.634;18.310;2023-06-22T08:23:43;4.60;;;3.43;;
12385;SDS011;6257;57.634;18.310;2023-06-22T08:26:10;9.27;;;3.37;;
12385;SDS011;6257;57.634;18.310;2023-06-22T08:28:37;5.37;;;3.00;;
12385;SDS011;6257;57.634;18.310;2023-06-22T08:31:04;5.77;;;3.00;;
12385;SDS011;6257;57.634;18.310;2023-06-22T08:33:31;3.87;;;3.23;;
12385;SDS011;6257;57.634;18.310;2023-06-22T08:36:00;4.17;;;3.20;;
12385;SDS011;6257;57.634;18.310;2023-06-22T08:38:27;9.77;;;3.43;;
12385;SDS011;6257;57.634;18.310;2023-06-22T08:40:54;7.20;;;3.40;;
12385;SDS011;6257;57.634;18.310;2023-06-22T08:43:21;4.60;;;3.50;;
12385;SDS011;6257;57.634;18.310;2023-06-22T08:45:48;4.30;;;3.53;;
12385;SDS011;6257;57.634;18.310;2023-06-22T08:48:15;7.27;;;3.50;;
12385;SDS011;6257;57.634;18.310;2023-06-22T08:50:42;4.77;;;3.30;;
12385;SDS011;6257;57.634;18.310;2023-06-22T08:53:10;6.30;;;3.70;;
12385;SDS011;6257;57.634;18.310;2023-06-22T08:55:38;5.73;;;3.97;;
12385;SDS011;6257;57.634;18.310;2023-06-22T08:58:05;6.97;;;3.30;;
12385;SDS011;6257;57.634;18.310;2023-06-22T09:00:32;5.13;;;3.63;;
12385;SDS011;6257;57.634;18.310;2023-06-22T09:03:00;5.97;;;3.73;;
12385;SDS011;6257;57.634;18.310;2023-06-22T09:05:27;6.93;;;3.70;;
12385;SDS011;6257;57.634;18.310;2023-06-22T09:07:55;4.93;;;3.60;;
12385;SDS011;6257;57.634;18.310;2023-06-22T09:10:25;5.40;;;4.23;;
12385;SDS011;6257;57.634;18.310;2023-06-22T09:12:52;4.37;;;3.67;;
12385;SDS011;6257;57.634;18.310;2023-06-22T09:15:19;6.93;;;3.70;;
12385;SDS011;6257;57.634;18.310;2023-06-22T09:17:46;7.80;;;3.87;;
12385;SDS011;6257;57.634;18.310;2023-06-22T09:20:14;6.83;;;4.00;;
12385;SDS011;6257;57.634;18.310;2023-06-22T09:22:41;3.87;;;3.17;;
12385;SDS011;6257;57.634;18.310;2023-06-22T09:25:08;6.87;;;3.67;;
12385;SDS011;6257;57.634;18.310;2023-06-22T09:27:37;4.70;;;3.87;;
12385;SDS011;6257;57.634;18.310;2023-06-22T09:30:05;5.70;;;3.97;;
12385;SDS011;6257;57.634;18.310;2023-06-22T09:32:33;6.53;;;4.03;;
12385;SDS011;6257;57.634;18.310;2023-06-22T09:35:02;4.73;;;3.50;;
12385;SDS011;6257;57.634;18.310;2023-06-22T09:37:31;6.43;;;3.93;;
12385;SDS011;6257;57.634;18.310;2023-06-22T09:39:59;5.97;;;4.10;;
12385;SDS011;6257;57.634;18.310;2023-06-22T09:42:25;4.27;;;3.20;;
12385;SDS011;6257;57.634;18.310;2023-06-22T09:44:54;6.50;;;4.03;;
12385;SDS011;6257;57.634;18.310;2023-06-22T09:47:21;5.27;;;4.13;;
12385;SDS011;6257;57.634;18.310;2023-06-22T09:49:48;8.30;;;4.13;;
12385;SDS011;6257;57.634;18.310;2023-06-22T09:52:15;4.63;;;3.80;;
12385;SDS011;6257;57.634;18.310;2023-06-22T09:54:42;7.13;;;4.20;;
12385;SDS011;6257;57.634;18.310;2023-06-22T09:57:09;7.67;;;4.40;;
12385;SDS011;6257;57.634;18.310;2023-06-22T09:59:36;5.13;;;3.80;;
12385;SDS011;6257;57.634;18.310;2023-06-22T10:02:06;6.13;;;4.10;;
12385;SDS011;6257;57.634;18.310;2023-06-22T10:04:34;4.37;;;3.57;;
12385;SDS011;6257;57.634;18.310;2023-06-22T10:07:01;7.10;;;3.90;;
12385;SDS011;6257;57.634;18.310;2023-06-22T10:09:29;7.87;;;4.00;;
12385;SDS011;6257;57.634;18.310;2023-06-22T10:11:56;6.23;;;3.60;;
12385;SDS011;6257;57.634;18.310;2023-06-22T10:14:23;8.67;;;3.90;;
12385;SDS011;6257;57.634;18.310;2023-06-22T10:16:51;5.33;;;3.97;;
12385;SDS011;6257;57.634;18.310;2023-06-22T10:19:20;4.17;;;3.37;;
12385;SDS011;6257;57.634;18.310;2023-06-22T10:21:47;6.37;;;3.60;;
12385;SDS011;6257;57.634;18.310;2023-06-22T10:24:14;4.83;;;4.03;;
12385;SDS011;6257;57.634;18.310;2023-06-22T10:26:41;5.83;;;3.80;;
12385;SDS011;6257;57.634;18.310;2023-06-22T10:29:08;5.67;;;4.03;;
12385;SDS011;6257;57.634;18.310;2023-06-22T10:31:35;4.70;;;3.77;;
12385;SDS011;6257;57.634;18.310;2023-06-22T10:34:02;7.17;;;4.17;;
12385;SDS011;6257;57.634;18.310;2023-06-22T10:36:31;6.10;;;3.80;;
12385;SDS011;6257;57.634;18.310;2023-06-22T10:38:58;4.97;;;3.50;;
12385;SDS011;6257;57.634;18.310;2023-06-22T10:41:26;4.93;;;3.60;;
12385;SDS011;6257;57.634;18.310;2023-06-22T10:43:55;5.23;;;3.83;;
12385;SDS011;6257;57.634;18.310;2023-06-22T10:46:23;6.10;;;3.47;;
12385;SDS011;6257;57.634;18.310;2023-06-22T10:48:50;6.63;;;3.87;;
12385;SDS011;6257;57.634;18.310;2023-06-22T10:51:19;5.63;;;3.90;;
12385;SDS011;6257;57.634;18.310;2023-06-22T10:53:48;5.33;;;3.90;;
12385;SDS011;6257;57.634;18.310;2023-06-22T10:56:16;7.00;;;3.90;;
12385;SDS011;6257;57.634;18.310;2023-06-22T10:58:44;6.60;;;3.77;;
12385;SDS011;6257;57.634;18.310;2023-06-22T11:01:11;4.00;;;3.43;;
12385;SDS011;6257;57.634;18.310;2023-06-22T11:03:39;4.50;;;3.60;;
12385;SDS011;6257;57.634;18.310;2023-06-22T11:06:06;5.93;;;4.00;;
12385;SDS011;6257;57.634;18.310;2023-06-22T11:08:33;4.53;;;3.57;;
12385;SDS011;6257;57.634;18.310;2023-06-22T11:11:01;4.10;;;3.57;;
12385;SDS011;6257;57.634;18.310;2023-06-22T11:13:28;4.03;;;3.23;;
12385;SDS011;6257;57.634;18.310;2023-06-22T11:15:55;5.10;;;3.80;;
12385;SDS011;6257;57.634;18.310;2023-06-22T11:18:22;5.30;;;3.80;;
12385;SDS011;6257;57.634;18.310;2023-06-22T11:20:49;5.13;;;4.10;;
12385;SDS011;6257;57.634;18.310;2023-06-22T11:23:16;4.63;;;3.80;;
12385;SDS011;6257;57.634;18.310;2023-06-22T11:25:44;4.90;;;3.53;;
12385;SDS011;6257;57.634;18.310;2023-06-22T11:28:12;4.50;;;4.10;;
12385;SDS011;6257;57.634;18.310;2023-06-22T11:30:39;5.57;;;4.07;;
12385;SDS011;6257;57.634;18.310;2023-06-22T11:33:06;4.43;;;3.90;;
12385;SDS011;6257;57.634;18.310;2023-06-22T11:35:33;6.90;;;4.23;;
12385;SDS011;6257;57.634;18.310;2023-06-22T11:38:00;4.80;;;3.73;;
12385;SDS011;6257;57.634;18.310;2023-06-22T11:40:28;5.03;;;3.83;;
12385;SDS011;6257;57.634;18.310;2023-06-22T11:42:55;4.97;;;3.97;;
12385;SDS011;6257;57.634;18.310;2023-06-22T11:45:24;5.43;;;3.90;;
12385;SDS011;6257;57.634;18.310;2023-06-22T11:47:51;4.83;;;4.00;;
12385;SDS011;6257;57.634;18.310;2023-06-22T11:50:18;5.03;;;4.00;;
12385;SDS011;6257;57.634;18.310;2023-06-22T11:52:45;5.17;;;3.77;;
12385;SDS011;6257;57.634;18.310;2023-06-22T11:55:12;5.73;;;4.20;;
12385;SDS011;6257;57.634;18.310;2023-06-22T11:57:54;5.97;;;3.57;;
12385;SDS011;6257;57.634;18.310;2023-06-22T12:00:26;7.23;;;3.60;;
12385;SDS011;6257;57.634;18.310;2023-06-22T12:02:53;7.10;;;4.00;;
12385;SDS011;6257;57.634;18.310;2023-06-22T12:05:21;4.43;;;3.93;;
12385;SDS011;6257;57.634;18.310;2023-06-22T12:07:49;4.37;;;3.60;;
12385;SDS011;6257;57.634;18.310;2023-06-22T12:10:17;5.20;;;3.80;;
12385;SDS011;6257;57.634;18.310;2023-06-22T12:12:44;6.20;;;4.30;;
12385;SDS011;6257;57.634;18.310;2023-06-22T12:15:11;4.73;;;4.10;;
12385;SDS011;6257;57.634;18.310;2023-06-22T12:17:40;4.63;;;4.10;;
12385;SDS011;6257;57.634;18.310;2023-06-22T12:20:07;7.07;;;4.33;;
12385;SDS011;6257;57.634;18.310;2023-06-22T12:22:35;3.93;;;3.50;;
12385;SDS011;6257;57.634;18.310;2023-06-22T12:25:03;4.07;;;3.67;;
12385;SDS011;6257;57.634;18.310;2023-06-22T12:27:31;6.70;;;3.83;;
12385;SDS011;6257;57.634;18.310;2023-06-22T12:29:58;7.77;;;3.60;;
12385;SDS011;6257;57.634;18.310;2023-06-22T12:32:25;6.10;;;3.50;;
12385;SDS011;6257;57.634;18.310;2023-06-22T12:34:53;4.77;;;3.90;;
12385;SDS011;6257;57.634;18.310;2023-06-22T12:37:21;7.57;;;4.23;;
12385;SDS011;6257;57.634;18.310;2023-06-22T12:39:48;6.77;;;3.90;;
12385;SDS011;6257;57.634;18.310;2023-06-22T12:42:15;5.60;;;3.73;;
12385;SDS011;6257;57.634;18.310;2023-06-22T12:44:42;4.53;;;3.77;;
12385;SDS011;6257;57.634;18.310;2023-06-22T12:47:09;5.90;;;3.83;;
12385;SDS011;6257;57.634;18.310;2023-06-22T12:49:38;5.43;;;3.47;;
12385;SDS011;6257;57.634;18.310;2023-06-22T12:52:09;5.50;;;3.60;;
12385;SDS011;6257;57.634;18.310;2023-06-22T12:54:37;5.07;;;4.03;;
12385;SDS011;6257;57.634;18.310;2023-06-22T12:57:04;5.90;;;3.40;;
12385;SDS011;6257;57.634;18.310;2023-06-22T12:59:32;5.43;;;3.33;;
12385;SDS011;6257;57.634;18.310;2023-06-22T13:01:59;5.93;;;3.47;;
12385;SDS011;6257;57.634;18.310;2023-06-22T13:04:26;5.90;;;3.90;;
12385;SDS011;6257;57.634;18.310;2023-06-22T13:06:53;5.33;;;3.40;;
12385;SDS011;6257;57.634;18.310;2023-06-22T13:09:21;4.47;;;3.67;;
12385;SDS011;6257;57.634;18.310;2023-06-22T13:11:48;6.60;;;3.80;;
12385;SDS011;6257;57.634;18.310;2023-06-22T13:14:15;5.00;;;3.93;;
12385;SDS011;6257;57.634;18.310;2023-06-22T13:16:42;4.13;;;3.30;;
12385;SDS011;6257;57.634;18.310;2023-06-22T13:19:09;6.20;;;3.70;;
12385;SDS011;6257;57.634;18.310;2023-06-22T13:21:36;4.70;;;3.67;;
12385;SDS011;6257;57.634;18.310;2023-06-22T13:24:04;4.73;;;3.80;;
12385;SDS011;6257;57.634;18.310;2023-06-22T13:26:35;4.00;;;3.60;;
12385;SDS011;6257;57.634;18.310;2023-06-22T13:29:02;5.97;;;3.53;;
12385;SDS011;6257;57.634;18.310;2023-06-22T13:31:29;4.67;;;3.53;;
12385;SDS011;6257;57.634;18.310;2023-06-22T13:33:56;4.80;;;3.47;;
12385;SDS011;6257;57.634;18.310;2023-06-22T13:36:23;4.77;;;3.27;;
12385;SDS011;6257;57.634;18.310;2023-06-22T13:38:50;5.23;;;3.57;;
12385;SDS011;6257;57.634;18.310;2023-06-22T13:41:17;6.67;;;3.87;;
12385;SDS011;6257;57.634;18.310;2023-06-22T13:43:45;5.47;;;3.20;;
12385;SDS011;6257;57.634;18.310;2023-06-22T13:46:12;4.60;;;3.50;;
12385;SDS011;6257;57.634;18.310;2023-06-22T13:48:39;5.20;;;3.90;;
12385;SDS011;6257;57.634;18.310;2023-06-22T13:51:06;6.77;;;3.70;;
12385;SDS011;6257;57.634;18.310;2023-06-22T13:53:33;6.40;;;3.70;;
12385;SDS011;6257;57.634;18.310;2023-06-22T13:56:00;5.13;;;3.43;;
12385;SDS011;6257;57.634;18.310;2023-06-22T13:58:27;6.63;;;3.30;;
12385;SDS011;6257;57.634;18.310;2023-06-22T14:00:56;6.23;;;3.47;;
12385;SDS011;6257;57.634;18.310;2023-06-22T14:03:26;5.07;;;4.10;;
12385;SDS011;6257;57.634;18.310;2023-06-22T14:05:53;6.13;;;3.70;;
12385;SDS011;6257;57.634;18.310;2023-06-22T14:08:21;5.17;;;3.27;;
12385;SDS011;6257;57.634;18.310;2023-06-22T14:10:50;5.90;;;3.33;;
12385;SDS011;6257;57.634;18.310;2023-06-22T14:13:18;5.00;;;3.20;;
12385;SDS011;6257;57.634;18.310;2023-06-22T14:15:45;4.10;;;3.70;;
12385;SDS011;6257;57.634;18.310;2023-06-22T14:18:15;6.03;;;3.40;;
12385;SDS011;6257;57.634;18.310;2023-06-22T14:20:42;6.20;;;3.57;;
12385;SDS011;6257;57.634;18.310;2023-06-22T14:23:09;5.23;;;3.17;;
12385;SDS011;6257;57.634;18.310;2023-06-22T14:25:36;4.10;;;3.33;;
12385;SDS011;6257;57.634;18.310;2023-06-22T14:28:03;4.77;;;3.60;;
12385;SDS011;6257;57.634;18.310;2023-06-22T14:30:30;5.17;;;3.23;;
12385;SDS011;6257;57.634;18.310;2023-06-22T14:32:57;5.97;;;3.30;;
12385;SDS011;6257;57.634;18.310;2023-06-22T14:35:26;4.23;;;3.03;;
12385;SDS011;6257;57.634;18.310;2023-06-22T14:37:53;6.03;;;3.47;;
12385;SDS011;6257;57.634;18.310;2023-06-22T14:40:20;5.57;;;3.20;;
12385;SDS011;6257;57.634;18.310;2023-06-22T14:42:47;4.70;;;3.53;;